ニューヨーク/JFK の空港の天気 - METARとTAF

ジョン・F・ケネディ国際空港 ( KJFK / JFK ) - アメリカ ニューヨーク州ニューヨーク
飛行場実況気象(Metar)
観測時間05/30 13:51 EDT (05/30 17:51 UTC)
風向・風速西 5m/s
視程10km以上
天気現象
少しの雲 雲底高度 2130m
全天の4割程度の雲 雲底高度 7620m
気温26.7℃
湿度36%
気圧1011.7hPa
METARKJFK 301751Z 27009KT 10SM FEW070 SCT250 27/11 A2988 RMK AO2 SLP117 T02670106 10267 20222 58010
過去の天気等 Google飛行場航空写真 Wunderground天気予報

過去48時間のMETAR

飛行場予報(TAF)
発表時間: 5/30 13:31 EDT (5/30 17:31 UTC)
予報対象時間: 30日14時 EDT ~ 31日20時 EDT
風向・風速西 6m/s
視程10km以上
少しの雲 雲底高度 1520m
全天の4割程度の雲 雲底高度 7620m
30日15時 EDT から
風向・風速南西 8m/s
視程10km以上
全天の4割程度の雲 雲底高度 1520m
全天の4割程度の雲 雲底高度 7620m
30日21時 EDT から
風向・風速北西 6m/s 瞬間風速 10m/s
視程10km以上
全天の4割程度の雲 雲底高度 1520m
全天の4割程度の雲 雲底高度 7620m
31日9時 EDT から
風向・風速北北西 8m/s 瞬間風速 12m/s
視程10km以上
少しの雲 雲底高度 1520m
全天の4割程度の雲 雲底高度 7620m
KJFK 301731Z 3018/3124 28012KT P6SM FEW050 SCT250
FM301900 22015KT P6SM SCT050 SCT250
FM310100 32012G20KT P6SM SCT050 SCT250
FM311300 33016G24KT P6SM FEW050 SCT250